createdAt,value
2023-06-11T00:00:21.773Z,99.90
2023-06-11T00:05:14.275Z,99.90
2023-06-11T00:10:08.412Z,99.90
2023-06-11T00:15:04.403Z,99.90
2023-06-11T00:19:57.677Z,99.90
2023-06-11T00:24:50.095Z,99.90
2023-06-11T00:29:42.360Z,99.90
2023-06-11T00:34:34.525Z,99.90
2023-06-11T00:39:27.165Z,99.90
2023-06-11T00:44:19.394Z,99.90
2023-06-11T00:49:12.679Z,99.90
2023-06-11T00:54:05.150Z,99.90
2023-06-11T00:59:00.901Z,99.90
2023-06-11T01:03:57.734Z,99.90
2023-06-11T01:09:59.544Z,99.90
2023-06-11T01:14:52.051Z,99.90
2023-06-11T01:19:57.254Z,99.90
2023-06-11T01:24:49.998Z,99.90
2023-06-11T01:29:47.180Z,99.90
2023-06-11T01:34:42.631Z,99.90
2023-06-11T01:39:46.383Z,99.90
2023-06-11T01:44:48.782Z,99.90
2023-06-11T01:49:41.119Z,99.90
2023-06-11T01:54:33.715Z,99.90
2023-06-11T01:59:25.848Z,99.90
2023-06-11T02:04:18.375Z,99.90
2023-06-11T02:09:10.491Z,99.90
2023-06-11T02:14:02.598Z,99.90
2023-06-11T02:18:54.672Z,99.90
2023-06-11T02:23:46.952Z,99.90
2023-06-11T02:28:39.356Z,99.90
2023-06-11T02:33:33.190Z,99.90
2023-06-11T02:38:25.548Z,99.90
2023-06-11T02:43:17.815Z,99.90
2023-06-11T02:48:09.928Z,99.90
2023-06-11T02:53:02.034Z,99.90
2023-06-11T02:57:55.608Z,99.90
2023-06-11T03:02:47.810Z,99.90
2023-06-11T03:07:44.327Z,99.90
2023-06-11T03:12:36.685Z,99.90
2023-06-11T03:17:30.440Z,99.90
2023-06-11T03:22:24.211Z,99.90
2023-06-11T03:27:16.836Z,99.90
2023-06-11T03:32:12.862Z,99.90
2023-06-11T03:37:07.995Z,99.90
2023-06-11T03:42:00.749Z,99.90
2023-06-11T03:46:56.136Z,99.90
2023-06-11T03:51:49.039Z,99.90
2023-06-11T03:56:41.232Z,99.90
2023-06-11T04:01:34.698Z,99.90
2023-06-11T04:06:28.694Z,99.90
2023-06-11T04:11:21.138Z,99.90
2023-06-11T04:16:13.407Z,99.90
2023-06-11T04:21:06.613Z,99.90
2023-06-11T04:25:58.814Z,99.90
2023-06-11T04:30:53.947Z,99.90
2023-06-11T04:35:49.333Z,89.30
2023-06-11T04:40:42.075Z,68.00
2023-06-11T04:45:37.436Z,56.40
2023-06-11T04:50:34.022Z,53.10
2023-06-11T04:55:28.450Z,50.30
2023-06-11T05:00:23.323Z,49.00
2023-06-11T05:05:16.014Z,45.90
2023-06-11T05:10:08.762Z,45.00
2023-06-11T05:15:01.773Z,43.40
2023-06-11T05:19:54.102Z,41.50
2023-06-11T05:24:48.984Z,40.30
2023-06-11T05:29:44.119Z,39.90
2023-06-11T05:34:38.616Z,39.40
2023-06-11T05:39:34.613Z,39.10
2023-06-11T05:44:28.178Z,38.60
2023-06-11T05:49:20.476Z,38.00
2023-06-11T05:54:13.817Z,37.90
2023-06-11T05:59:06.627Z,36.30
2023-06-11T06:03:58.912Z,36.00
2023-06-11T06:08:51.326Z,35.20
2023-06-11T06:13:44.258Z,34.70
2023-06-11T06:18:40.111Z,34.50
2023-06-11T06:23:32.874Z,34.20
2023-06-11T06:28:35.341Z,34.80
2023-06-11T06:33:31.566Z,34.50
2023-06-11T06:38:25.544Z,34.10
2023-06-11T06:43:18.271Z,33.70
2023-06-11T06:48:19.285Z,33.80
2023-06-11T06:53:11.540Z,34.70
2023-06-11T06:58:04.140Z,34.60
2023-06-11T07:02:56.519Z,34.20
2023-06-11T07:07:49.405Z,33.90
2023-06-11T07:12:42.036Z,34.10
2023-06-11T07:17:34.309Z,34.40
2023-06-11T07:22:26.637Z,34.20
2023-06-11T07:27:19.232Z,33.90
2023-06-11T07:32:12.477Z,34.50
2023-06-11T07:37:05.955Z,34.00
2023-06-11T07:41:58.390Z,34.20
2023-06-11T07:46:52.124Z,34.60
2023-06-11T07:51:46.389Z,34.50
2023-06-11T07:56:40.280Z,33.70
2023-06-11T08:01:32.405Z,34.60
2023-06-11T08:06:24.934Z,34.10
2023-06-11T08:11:17.933Z,34.10
2023-06-11T08:16:10.772Z,34.30
2023-06-11T08:21:04.042Z,35.40
2023-06-11T08:26:00.123Z,35.80
2023-06-11T08:30:52.542Z,34.30
2023-06-11T08:35:44.731Z,34.50
2023-06-11T08:40:42.176Z,35.40
2023-06-11T08:45:35.835Z,35.10
2023-06-11T08:50:30.600Z,36.80
2023-06-11T08:55:22.880Z,38.20
2023-06-11T09:00:15.578Z,39.60
2023-06-11T09:05:09.698Z,39.20
2023-06-11T09:10:09.862Z,39.90
2023-06-11T09:15:05.820Z,38.80
2023-06-11T09:19:58.296Z,37.50
2023-06-11T09:24:52.120Z,38.60
2023-06-11T09:29:47.482Z,35.40
2023-06-11T09:34:41.607Z,37.80
2023-06-11T09:39:34.814Z,39.00
2023-06-11T09:44:28.541Z,36.50
2023-06-11T09:49:23.593Z,35.90
2023-06-11T09:54:17.254Z,36.90
2023-06-11T09:59:13.350Z,36.80
2023-06-11T10:04:05.981Z,37.90
2023-06-11T10:09:01.813Z,37.40
2023-06-11T10:14:02.310Z,36.50
2023-06-11T10:19:07.346Z,36.40
2023-06-11T10:23:59.478Z,38.10
2023-06-11T10:28:53.181Z,41.00
2023-06-11T10:33:46.700Z,42.50
2023-06-11T10:38:42.272Z,41.00
2023-06-11T10:43:37.867Z,41.10
2023-06-11T10:48:32.016Z,41.90
2023-06-11T10:53:24.348Z,41.50
2023-06-11T10:58:28.551Z,39.40
2023-06-11T11:03:25.890Z,38.80
2023-06-11T11:08:21.678Z,40.40
2023-06-11T11:13:18.022Z,40.70
2023-06-11T11:18:10.156Z,40.50
2023-06-11T11:23:02.317Z,41.00
2023-06-11T11:27:54.931Z,41.20
2023-06-11T11:32:47.450Z,44.80
2023-06-11T11:37:40.181Z,46.90
2023-06-11T11:42:32.267Z,47.60
2023-06-11T11:47:27.772Z,47.50
2023-06-11T11:52:22.355Z,47.70
2023-06-11T11:57:14.779Z,48.00
2023-06-11T12:02:08.041Z,47.30
2023-06-11T12:07:08.023Z,47.80
2023-06-11T12:12:05.588Z,48.40
2023-06-11T12:16:58.516Z,48.00
2023-06-11T12:21:52.429Z,49.60
2023-06-11T12:26:51.473Z,48.20
2023-06-11T12:31:44.312Z,48.60
2023-06-11T12:36:38.021Z,47.80
2023-06-11T12:41:30.188Z,49.10
2023-06-11T12:46:22.495Z,48.20
2023-06-11T12:51:14.718Z,48.50
2023-06-11T12:56:07.532Z,48.40
2023-06-11T13:00:59.650Z,47.50
2023-06-11T13:05:51.772Z,45.70
2023-06-11T13:10:43.867Z,47.90
2023-06-11T13:15:36.008Z,46.90
2023-06-11T13:20:29.924Z,46.20
2023-06-11T13:25:23.244Z,47.90
2023-06-11T13:30:15.758Z,47.70
2023-06-11T13:35:09.727Z,46.90
2023-06-11T13:40:02.254Z,46.40
2023-06-11T13:44:54.419Z,47.40
2023-06-11T13:49:46.581Z,49.20
2023-06-11T13:54:43.612Z,48.50
2023-06-11T13:59:35.794Z,48.80
2023-06-11T14:04:28.899Z,48.70
2023-06-11T14:09:21.117Z,48.00
2023-06-11T14:14:13.760Z,49.00
2023-06-11T14:19:08.017Z,50.30
2023-06-11T14:24:00.285Z,49.90
2023-06-11T14:28:53.571Z,48.40
2023-06-11T14:33:45.924Z,48.80
2023-06-11T14:38:38.043Z,48.70
2023-06-11T14:43:30.155Z,47.80
2023-06-11T14:48:22.176Z,47.70
2023-06-11T14:53:14.717Z,49.00
2023-06-11T14:58:06.885Z,49.20
2023-06-11T15:02:59.137Z,48.40
2023-06-11T15:07:51.390Z,49.00
2023-06-11T15:12:43.525Z,49.60
2023-06-11T15:17:37.440Z,49.10
2023-06-11T15:22:29.845Z,48.80
2023-06-11T15:27:22.112Z,49.70
2023-06-11T15:32:15.367Z,49.60
2023-06-11T15:37:07.568Z,50.70
2023-06-11T15:42:02.168Z,51.50
2023-06-11T15:46:54.213Z,51.70
2023-06-11T15:51:48.568Z,50.90
2023-06-11T15:56:47.641Z,51.80
2023-06-11T16:01:40.140Z,52.90
2023-06-11T16:06:32.359Z,52.20
2023-06-11T16:11:24.693Z,53.30
2023-06-11T16:16:17.357Z,53.80
2023-06-11T16:21:09.801Z,53.40
2023-06-11T16:26:02.785Z,53.60
2023-06-11T16:30:55.232Z,54.50
2023-06-11T16:35:48.650Z,54.80
2023-06-11T16:40:41.250Z,54.00
2023-06-11T16:45:33.726Z,54.30
2023-06-11T16:50:26.106Z,54.60
2023-06-11T16:55:22.556Z,54.50
2023-06-11T17:00:16.095Z,55.00
2023-06-11T17:05:08.673Z,56.30
2023-06-11T17:10:00.989Z,56.20
2023-06-11T17:14:54.680Z,56.30
2023-06-11T17:19:47.390Z,56.80
2023-06-11T17:24:39.468Z,56.00
2023-06-11T17:29:34.242Z,56.60
2023-06-11T17:34:26.919Z,56.70
2023-06-11T17:39:19.169Z,56.40
2023-06-11T17:44:11.247Z,57.00
2023-06-11T17:49:03.569Z,57.20
2023-06-11T17:53:57.103Z,56.90
2023-06-11T17:58:49.205Z,56.90
2023-06-11T18:03:41.607Z,56.60
2023-06-11T18:08:33.950Z,57.00
2023-06-11T18:13:26.264Z,56.70
2023-06-11T18:18:18.672Z,56.90
2023-06-11T18:23:11.136Z,57.80
2023-06-11T18:28:03.648Z,57.40
2023-06-11T18:32:56.262Z,58.00
2023-06-11T18:37:49.640Z,58.40
2023-06-11T18:42:42.517Z,58.90
2023-06-11T18:47:35.024Z,59.20
2023-06-11T18:52:27.299Z,59.60
2023-06-11T18:57:21.140Z,60.10
2023-06-11T19:02:15.650Z,60.20
2023-06-11T19:07:08.001Z,60.90
2023-06-11T19:12:00.202Z,61.50
2023-06-11T19:16:52.810Z,62.80
2023-06-11T19:21:47.072Z,63.00
2023-06-11T19:26:39.667Z,64.30
2023-06-11T19:31:32.191Z,64.40
2023-06-11T19:36:24.709Z,64.80
2023-06-11T19:41:16.921Z,64.40
2023-06-11T19:46:09.211Z,64.50
2023-06-11T19:51:01.596Z,65.00
2023-06-11T19:55:54.049Z,65.20
2023-06-11T20:00:46.353Z,65.50
2023-06-11T20:05:38.485Z,66.10
2023-06-11T20:10:37.033Z,66.40
2023-06-11T20:15:29.145Z,67.50
2023-06-11T20:20:21.657Z,67.70
2023-06-11T20:25:13.777Z,68.10
2023-06-11T20:30:06.732Z,68.70
2023-06-11T20:35:00.011Z,68.80
2023-06-11T20:39:52.359Z,68.80
2023-06-11T20:44:44.712Z,68.50
2023-06-11T20:49:36.863Z,68.70
2023-06-11T20:54:29.316Z,69.00
2023-06-11T20:59:21.389Z,69.60
2023-06-11T21:04:13.718Z,69.70
2023-06-11T21:09:07.267Z,70.50
2023-06-11T21:14:12.545Z,71.10
2023-06-11T21:19:06.214Z,73.60
2023-06-11T21:23:58.365Z,73.90
2023-06-11T21:28:50.592Z,75.60
2023-06-11T21:33:42.654Z,78.30
2023-06-11T21:38:34.849Z,81.30
2023-06-11T21:43:27.062Z,81.10
2023-06-11T21:48:19.189Z,77.70
2023-06-11T21:53:14.785Z,74.00
2023-06-11T21:58:06.948Z,72.90
2023-06-11T22:02:59.242Z,73.40
2023-06-11T22:07:52.727Z,73.10
2023-06-11T22:12:45.296Z,73.80
2023-06-11T22:17:38.156Z,73.90
2023-06-11T22:22:31.009Z,73.70
2023-06-11T22:27:23.248Z,73.50
2023-06-11T22:32:15.602Z,73.40
2023-06-11T22:37:07.746Z,73.10
2023-06-11T22:41:59.830Z,71.70
2023-06-11T22:46:52.634Z,72.10
2023-06-11T22:51:45.973Z,71.70
2023-06-11T22:56:38.329Z,70.50
2023-06-11T23:01:31.737Z,70.00
2023-06-11T23:06:23.861Z,69.90
2023-06-11T23:11:15.926Z,69.90
2023-06-11T23:16:10.180Z,70.70
2023-06-11T23:21:05.398Z,73.30
2023-06-11T23:25:58.497Z,76.10
2023-06-11T23:30:53.332Z,77.40
2023-06-11T23:35:45.566Z,80.70
2023-06-11T23:40:38.883Z,85.00
2023-06-11T23:45:30.963Z,86.90
2023-06-11T23:50:24.065Z,88.80
2023-06-11T23:55:16.248Z,90.90
